Time;durP1;ratioP1;P1;durP2;ratioP2;P2;SDS_P1;SDS_P2;PMS_P1;PMS_P2;Temp;Humidity;BMP_temperature;BMP_pressure;BME280_temperature;BME280_humidity;BME280_pressure;Samples;Min_cycle;Max_cycle;Signal;HPM_P1;HPM_P2
2022/11/26 00:02:23;;;;;;;;;30.00;29.00;;;;;9.43;78.47;101929.06;5076040;27;46510;-71
2022/11/26 00:04:50;;;;;;;;;24.75;24.00;;;;;9.40;78.73;101933.50;5075795;27;45322;-69
2022/11/26 00:07:21;;;;;;;;;27.25;27.00;;;;;9.41;78.63;101935.25;5075764;27;45416;-71
2022/11/26 00:09:47;;;;;;;;;24.00;24.00;;;;;9.39;78.75;101939.66;5076169;27;45265;-71
2022/11/26 00:12:17;;;;;;;;;22.75;22.25;;;;;9.35;78.43;101941.44;5075381;27;46488;-69
2022/11/26 00:14:43;;;;;;;;;25.00;25.00;;;;;9.16;78.96;101910.19;5075556;27;45339;-70
2022/11/26 00:17:13;;;;;;;;;29.50;27.25;;;;;9.32;78.85;101939.75;5075435;27;45368;-70
2022/11/26 00:19:43;;;;;;;;;23.25;22.50;;;;;9.32;78.90;101951.97;5075803;27;45582;-69
2022/11/26 00:22:23;;;;;;;;;27.50;26.25;;;;;9.27;78.91;101940.66;5075164;27;45451;-70
2022/11/26 00:24:49;;;;;;;;;27.25;27.25;;;;;9.25;79.04;101947.69;5075256;27;45361;-69
2022/11/26 00:27:14;;;;;;;;;24.75;23.00;;;;;9.26;78.99;101958.19;5075640;27;45379;-71
2022/11/26 00:29:40;;;;;;;;;26.75;26.75;;;;;9.12;79.18;101941.75;5075779;27;45389;-71
2022/11/26 00:32:21;;;;;;;;;23.25;23.25;;;;;9.23;79.03;101963.50;5074933;27;46245;-70
2022/11/26 00:34:46;;;;;;;;;29.50;29.00;;;;;9.21;79.05;101960.00;5075459;27;45364;-71
2022/11/26 00:37:34;;;;;;;;;25.00;25.00;;;;;9.18;79.10;101966.16;5074738;27;45270;-71
2022/11/26 00:40:00;;;;;;;;;25.00;23.50;;;;;9.17;78.95;101964.41;5075054;27;45377;-72
2022/11/26 00:42:26;;;;;;;;;25.00;25.00;;;;;9.13;79.57;101962.72;5074725;27;45636;-71
2022/11/26 00:44:51;;;;;;;;;21.50;21.25;;;;;9.12;79.26;101958.34;5074611;27;50165;-70
2022/11/26 00:47:16;;;;;;;;;19.75;19.75;;;;;9.12;79.54;101966.22;5075354;27;45386;-71
2022/11/26 00:49:42;;;;;;;;;17.50;17.50;;;;;9.09;79.73;101961.00;5074819;27;45303;-71
2022/11/26 00:52:31;;;;;;;;;23.50;23.00;;;;;9.11;79.56;101964.50;5074275;27;53829;-73
2022/11/26 00:54:57;;;;;;;;;23.50;23.00;;;;;9.05;79.72;101959.31;5074459;27;45455;-72
2022/11/26 00:57:22;;;;;;;;;25.75;25.75;;;;;9.08;80.54;101959.28;5090419;27;45186;-71
2022/11/26 00:59:47;;;;;;;;;28.75;28.75;;;;;9.09;80.23;101957.53;5075195;27;45281;-70
2022/11/26 01:02:13;;;;;;;;;23.00;20.00;;;;;9.06;79.98;101950.56;5074623;27;46592;-69
2022/11/26 01:04:38;;;;;;;;;30.50;27.25;;;;;9.05;80.03;101960.19;5074779;27;45297;-71
2022/11/26 01:07:03;;;;;;;;;22.50;22.50;;;;;9.06;79.75;101963.69;5074651;27;47738;-69
2022/11/26 01:09:29;;;;;;;;;24.50;24.00;;;;;9.03;80.00;101963.72;5075152;27;45499;-69
2022/11/26 01:11:54;;;;;;;;;22.50;22.00;;;;;9.02;79.99;101968.13;5074491;27;45469;-70
2022/11/26 01:14:21;;;;;;;;;24.50;24.50;;;;;9.03;80.08;101969.84;5074849;28;45337;-69
2022/11/26 01:16:47;;;;;;;;;22.00;21.25;;;;;8.97;80.21;101969.88;5074826;27;45431;-72
2022/11/26 01:19:15;;;;;;;;;21.25;19.75;;;;;8.98;79.88;101976.88;5073415;28;45558;-70
2022/11/26 01:21:41;;;;;;;;;16.00;16.00;;;;;8.94;80.22;101971.69;5073363;28;46443;-69
2022/11/26 01:24:06;;;;;;;;;18.75;17.00;;;;;8.97;80.29;101975.13;5074693;27;45446;-69
2022/11/26 01:26:37;;;;;;;;;20.00;20.00;;;;;8.94;80.15;101969.06;5074984;28;45248;-68
2022/11/26 01:29:02;;;;;;;;;20.50;19.00;;;;;8.95;80.38;101973.44;5074966;28;45368;-69
2022/11/26 01:31:28;;;;;;;;;25.25;24.50;;;;;8.94;80.40;101979.56;5074229;27;46161;-69
2022/11/26 01:33:55;;;;;;;;;33.50;31.75;;;;;8.92;80.55;101974.31;5075570;28;45371;-68
2022/11/26 01:36:26;;;;;;;;;68.67;55.00;;;;;8.93;80.61;101975.19;5078403;27;45237;-69
2022/11/26 01:38:53;;;;;;;;;44.00;37.25;;;;;8.86;80.80;101966.50;5078508;27;45322;-69
2022/11/26 01:41:47;;;;;;;;;39.75;34.50;;;;;8.91;80.99;101976.09;5078048;27;45372;-70
2022/11/26 01:44:26;;;;;;;;;38.25;35.25;;;;;8.89;80.82;101974.34;5077877;28;45466;-71
2022/11/26 01:46:52;;;;;;;;;40.75;35.25;;;;;8.88;80.59;101973.50;5078372;27;45309;-71
2022/11/26 01:49:32;;;;;;;;;47.50;41.00;;;;;8.85;80.81;101967.41;5078561;28;45647;-71
2022/11/26 01:52:21;;;;;;;;;43.50;38.25;;;;;8.87;80.48;101968.25;5110984;27;47255;-72
2022/11/26 01:54:48;;;;;;;;;48.75;42.00;;;;;8.82;80.46;101970.94;5077806;27;45432;-72
2022/11/26 01:57:19;;;;;;;;;45.25;38.75;;;;;8.82;80.39;101967.44;5077870;27;45423;-71
2022/11/26 01:59:50;;;;;;;;;48.25;40.75;;;;;8.80;80.42;101974.44;5076346;28;45585;-69
2022/11/26 02:02:16;;;;;;;;;47.50;39.75;;;;;8.76;80.12;101978.88;5077627;28;46176;-68
2022/11/26 02:05:17;;;;;;;;;42.50;37.50;;;;;8.73;79.96;101968.41;5077424;27;45361;-71
2022/11/26 02:07:43;;;;;;;;;43.75;38.25;;;;;8.68;79.98;101970.22;5077498;27;45347;-69
2022/11/26 02:10:08;;;;;;;;;46.25;39.25;;;;;8.70;80.17;101973.69;5077687;27;45543;-68
2022/11/26 02:12:36;;;;;;;;;46.25;39.50;;;;;8.68;79.96;101972.84;5077049;28;45438;-67
2022/11/26 02:15:01;;;;;;;;;42.50;36.00;;;;;8.66;80.09;101964.13;5077349;27;45334;-70
2022/11/26 02:17:37;;;;;;;;;48.50;40.25;;;;;8.59;80.18;101961.56;5077161;27;45290;-72
2022/11/26 02:20:27;;;;;;;;;42.50;37.00;;;;;8.61;80.19;101967.66;5077188;27;45416;-70
2022/11/26 02:23:19;;;;;;;;;46.00;40.25;;;;;8.56;79.98;101960.69;5077437;28;46445;-70
2022/11/26 02:26:09;;;;;;;;;46.00;40.25;;;;;8.55;80.30;101962.47;5077344;27;45792;-70
2022/11/26 02:29:03;;;;;;;;;43.50;38.00;;;;;8.54;80.04;101968.59;5077552;28;45374;-70
2022/11/26 02:31:38;;;;;;;;;47.00;40.00;;;;;8.51;80.62;101960.75;5093189;27;45295;-70
2022/11/26 02:34:09;;;;;;;;;44.50;39.00;;;;;8.49;80.30;101959.91;5076604;27;46532;-69
2022/11/26 02:36:45;;;;;;;;;45.75;38.50;;;;;8.44;80.59;101945.91;5076731;27;45216;-69
2022/11/26 02:39:12;;;;;;;;;43.00;37.50;;;;;8.43;80.64;101954.66;5076946;27;45320;-70
2022/11/26 02:41:47;;;;;;;;;48.25;38.25;;;;;8.40;80.60;101949.44;5077125;27;45548;-71
2022/11/26 02:44:15;;;;;;;;;46.00;38.00;;;;;8.41;80.88;101957.31;5076886;27;45584;-71
2022/11/26 02:46:42;;;;;;;;;50.50;43.00;;;;;8.40;80.82;101957.31;5075550;27;45409;-70
2022/11/26 02:49:11;;;;;;;;;42.25;37.25;;;;;8.38;80.61;101957.34;5075999;28;45312;-69
2022/11/26 02:51:40;;;;;;;;;47.75;40.75;;;;;8.38;80.30;101961.69;5077079;28;45492;-69
2022/11/26 02:54:07;;;;;;;;;47.75;40.50;;;;;8.31;80.54;101969.63;5076665;27;45310;-69
2022/11/26 02:56:33;;;;;;;;;46.00;39.25;;;;;8.32;80.82;101968.72;5076815;27;45359;-70
2022/11/26 02:58:59;;;;;;;;;46.50;38.75;;;;;8.29;80.35;101966.13;5076898;28;45345;-69
2022/11/26 03:01:36;;;;;;;;;44.25;38.00;;;;;8.30;80.52;101969.66;5077126;28;45386;-69
2022/11/26 03:04:09;;;;;;;;;41.00;36.00;;;;;8.20;80.59;101968.84;5076815;27;46581;-71
2022/11/26 03:06:35;;;;;;;;;43.00;38.25;;;;;8.22;80.58;101972.31;5076652;27;45357;-70
2022/11/26 03:09:01;;;;;;;;;44.00;38.00;;;;;8.27;80.72;101977.53;5075215;28;45383;-67
2022/11/26 03:11:27;;;;;;;;;38.25;35.25;;;;;8.20;80.46;101968.84;5076857;27;45289;-70
2022/11/26 03:13:52;;;;;;;;;44.50;38.75;;;;;8.21;80.66;101973.19;5092471;27;48153;-69
2022/11/26 03:16:17;;;;;;;;;43.00;37.75;;;;;8.18;80.80;101970.59;5076617;27;45798;-70
2022/11/26 03:18:43;;;;;;;;;43.50;37.00;;;;;8.16;80.47;101972.34;5076597;27;45474;-71
2022/11/26 03:21:08;;;;;;;;;41.00;36.75;;;;;8.14;80.83;101972.38;5077352;28;45346;-70
2022/11/26 03:23:34;;;;;;;;;37.50;35.00;;;;;8.12;80.42;101970.66;5076716;27;46332;-70
2022/11/26 03:26:00;;;;;;;;;45.50;37.25;;;;;8.08;80.94;101959.34;5076146;28;45324;-69
2022/11/26 03:28:25;;;;;;;;;42.00;37.50;;;;;8.10;81.02;101975.03;5076808;27;45465;-69
2022/11/26 03:30:51;;;;;;;;;42.50;37.50;;;;;8.06;80.77;101968.97;5076514;27;45508;-69
2022/11/26 03:33:17;;;;;;;;;38.75;35.00;;;;;8.04;80.95;101957.63;5075987;27;45565;-69
2022/11/26 03:35:42;;;;;;;;;45.25;39.25;;;;;8.02;80.77;101965.47;5075991;27;45479;-69
2022/11/26 03:38:08;;;;;;;;;39.00;35.00;;;;;8.01;81.19;101963.72;5076097;27;45309;-68
2022/11/26 03:40:33;;;;;;;;;44.25;38.50;;;;;8.02;80.83;101967.25;5076001;27;45589;-68
2022/11/26 03:42:58;;;;;;;;;42.25;36.25;;;;;8.02;80.53;101967.25;5075902;27;46245;-68
2022/11/26 03:45:23;;;;;;;;;33.75;32.75;;;;;8.00;80.84;101967.25;5075787;28;45320;-67
2022/11/26 03:47:49;;;;;;;;;39.25;36.00;;;;;7.98;80.57;101966.38;5076050;27;45389;-68
2022/11/26 03:50:14;;;;;;;;;38.75;35.50;;;;;7.97;80.76;101972.50;5076483;27;45166;-70
2022/11/26 03:52:39;;;;;;;;;33.25;32.75;;;;;7.96;80.97;101970.75;5075842;27;45637;-69
2022/11/26 03:55:05;;;;;;;;;35.25;34.00;;;;;7.94;80.90;101966.41;5108257;27;45384;-69
2022/11/26 03:57:31;;;;;;;;;37.50;34.00;;;;;7.95;80.80;101978.63;5074078;28;45355;-69
2022/11/26 03:59:56;;;;;;;;;37.75;34.75;;;;;7.92;80.77;101976.91;5076415;27;45306;-71
2022/11/26 04:02:21;;;;;;;;;38.00;35.25;;;;;7.91;80.67;101975.16;5075530;27;45277;-68
2022/11/26 04:04:47;;;;;;;;;41.25;37.00;;;;;7.91;80.90;101985.66;5075656;27;45352;-70
2022/11/26 04:07:12;;;;;;;;;36.50;33.50;;;;;7.89;81.20;101995.25;5075716;27;45487;-72
2022/11/26 04:09:37;;;;;;;;;35.00;32.00;;;;;7.88;81.12;101983.03;5073797;28;54457;-71
2022/11/26 04:12:03;;;;;;;;;36.50;34.75;;;;;7.87;81.50;101983.91;5075151;28;46763;-71
2022/11/26 04:14:28;;;;;;;;;38.75;36.00;;;;;7.84;81.08;101974.31;5075733;28;45231;-69
2022/11/26 04:16:53;;;;;;;;;32.50;32.00;;;;;7.86;81.72;101988.28;5075593;27;45380;-71
2022/11/26 04:19:19;;;;;;;;;37.50;34.50;;;;;7.85;80.94;101994.41;5075501;27;45505;-70
2022/11/26 04:21:44;;;;;;;;;34.50;32.25;;;;;7.82;80.90;101983.09;5075131;27;45667;-69
2022/11/26 04:24:09;;;;;;;;;35.00;32.75;;;;;7.86;81.55;101990.03;5074939;27;45466;-70
2022/11/26 04:26:35;;;;;;;;;37.25;35.00;;;;;7.84;80.99;101979.56;5074890;28;52055;-70
2022/11/26 04:29:00;;;;;;;;;37.50;35.00;;;;;7.83;81.35;101977.81;5076208;27;45365;-69
2022/11/26 04:31:25;;;;;;;;;41.75;38.00;;;;;7.83;80.94;101969.97;5075353;27;45480;-69
2022/11/26 04:33:51;;;;;;;;;33.75;32.75;;;;;7.87;81.56;101973.44;5075561;27;45330;-70
2022/11/26 04:36:16;;;;;;;;;39.00;35.75;;;;;7.86;81.15;101969.09;5075009;28;45232;-69
2022/11/26 04:38:41;;;;;;;;;39.75;36.75;;;;;7.82;81.67;101962.97;5075360;27;45294;-68
2022/11/26 04:41:07;;;;;;;;;28.50;28.50;;;;;7.83;81.06;101969.09;5074943;27;45349;-69
2022/11/26 04:43:33;;;;;;;;;38.75;35.00;;;;;7.88;81.70;101980.44;5073805;28;45809;-70
2022/11/26 04:45:58;;;;;;;;;38.50;32.75;;;;;7.87;81.65;101978.69;5075484;27;45427;-69
2022/11/26 04:48:23;;;;;;;;;40.00;35.50;;;;;7.88;81.61;101973.41;5075586;27;45481;-70
2022/11/26 04:50:49;;;;;;;;;40.75;35.75;;;;;7.87;81.41;101976.06;5074790;27;46283;-69
2022/11/26 04:53:15;;;;;;;;;40.50;35.50;;;;;7.85;81.21;101983.91;5074605;27;45486;-69
2022/11/26 04:55:41;;;;;;;;;35.25;33.75;;;;;7.78;81.03;101976.97;5074980;27;45257;-70
2022/11/26 04:58:06;;;;;;;;;38.75;35.50;;;;;7.78;80.65;101976.97;5074997;27;45288;-67
2022/11/26 05:00:32;;;;;;;;;40.00;37.00;;;;;7.77;80.77;101979.63;5107655;27;47966;-69
2022/11/26 05:02:57;;;;;;;;;34.75;33.50;;;;;7.75;81.19;101979.63;5072977;28;45370;-68
2022/11/26 05:05:22;;;;;;;;;36.00;33.00;;;;;7.73;80.73;101986.63;5074473;27;45424;-69
2022/11/26 05:07:48;;;;;;;;;37.75;34.75;;;;;7.69;81.06;101995.38;5074119;27;45279;-68
2022/11/26 05:10:13;;;;;;;;;35.25;34.25;;;;;7.70;81.17;102007.59;5073516;27;45386;-69
2022/11/26 05:12:38;;;;;;;;;39.25;35.75;;;;;7.68;81.37;101999.75;5074266;27;45335;-68
2022/11/26 05:15:04;;;;;;;;;38.25;35.00;;;;;7.68;80.59;102006.72;5074823;27;45181;-70
2022/11/26 05:17:30;;;;;;;;;35.00;34.00;;;;;7.68;80.88;102009.34;5075231;27;45409;-69
2022/11/26 05:19:55;;;;;;;;;40.00;35.50;;;;;7.62;80.84;101997.16;5073083;28;46276;-70
2022/11/26 05:22:21;;;;;;;;;34.50;33.50;;;;;7.65;81.73;102007.63;5074434;27;45438;-69
2022/11/26 05:24:46;;;;;;;;;38.50;35.75;;;;;7.64;81.72;102005.00;5074403;27;50239;-69
2022/11/26 05:27:12;;;;;;;;;35.00;33.75;;;;;7.61;81.88;102000.66;5074818;27;45535;-70
2022/11/26 05:29:37;;;;;;;;;32.75;32.50;;;;;7.65;81.27;102011.97;5074282;27;45384;-69
2022/11/26 05:32:02;;;;;;;;;31.75;31.75;;;;;7.65;81.15;102023.34;5074716;27;45532;-69
2022/11/26 05:34:28;;;;;;;;;43.75;36.75;;;;;7.63;81.77;102017.25;5074390;27;45494;-69
2022/11/26 05:36:53;;;;;;;;;36.50;34.25;;;;;7.64;81.90;102018.97;5074684;27;45391;-69
2022/11/26 05:39:19;;;;;;;;;29.25;29.25;;;;;7.62;81.33;102027.72;5074180;27;45516;-70
2022/11/26 05:41:44;;;;;;;;;32.50;32.25;;;;;7.59;81.13;102018.13;5074363;27;45255;-71
2022/11/26 05:44:10;;;;;;;;;39.50;34.25;;;;;7.61;81.08;102013.75;5074321;28;45500;-70
2022/11/26 05:46:41;;;;;;;;;31.50;31.50;;;;;7.60;81.29;102015.50;5074972;27;45285;-71
2022/11/26 05:49:07;;;;;;;;;34.75;32.00;;;;;7.63;81.02;102024.22;5074049;27;45474;-68
2022/11/26 05:51:33;;;;;;;;;31.25;30.00;;;;;7.62;81.12;102022.47;5074306;28;45371;-71
2022/11/26 05:53:58;;;;;;;;;32.25;31.50;;;;;7.63;82.10;102032.94;5073953;27;45468;-71
2022/11/26 05:56:23;;;;;;;;;36.00;33.50;;;;;7.63;81.37;102030.34;5074360;27;45608;-70
2022/11/26 05:58:49;;;;;;;;;45.25;39.00;;;;;7.64;81.61;102031.19;5074020;27;45308;-71
2022/11/26 06:01:14;;;;;;;;;32.50;32.00;;;;;7.65;81.30;102031.19;5073725;27;47959;-71
2022/11/26 06:03:40;;;;;;;;;37.50;34.75;;;;;7.64;81.34;102042.56;5073993;28;45228;-68
2022/11/26 06:06:07;;;;;;;;;33.50;32.50;;;;;7.63;81.22;102040.81;5074200;27;45647;-70
2022/11/26 06:08:33;;;;;;;;;32.25;31.50;;;;;7.60;80.81;102035.59;5074016;27;47730;-69
2022/11/26 06:10:58;;;;;;;;;38.75;35.75;;;;;7.63;80.71;102039.91;5073620;27;45426;-71
2022/11/26 06:13:23;;;;;;;;;39.25;35.50;;;;;7.59;81.07;102050.41;5073823;27;45278;-71
2022/11/26 06:15:49;;;;;;;;;31.25;30.75;;;;;7.60;81.04;102053.91;5074156;27;45631;-71
2022/11/26 06:18:14;;;;;;;;;35.75;34.25;;;;;7.54;81.18;102057.41;5074022;28;46525;-71
2022/11/26 06:20:40;;;;;;;;;33.75;32.00;;;;;7.58;80.97;102074.84;5076370;28;45333;-69
2022/11/26 06:23:05;;;;;;;;;35.00;33.75;;;;;7.58;80.94;102087.94;5077567;27;45334;-69
2022/11/26 06:25:30;;;;;;;;;37.75;35.25;;;;;7.58;80.38;102087.09;5077657;27;45291;-67
2022/11/26 06:27:56;;;;;;;;;35.75;33.00;;;;;7.57;80.31;102080.97;5077088;27;45513;-70
2022/11/26 06:30:22;;;;;;;;;35.75;31.75;;;;;7.62;80.39;102070.50;5077029;28;45341;-69
2022/11/26 06:32:47;;;;;;;;;31.00;30.75;;;;;7.60;80.73;102061.78;5077228;27;45507;-69
2022/11/26 06:35:13;;;;;;;;;35.00;33.75;;;;;7.62;80.58;102059.13;5077563;27;45500;-69
2022/11/26 06:37:39;;;;;;;;;36.75;33.75;;;;;7.61;80.47;102063.50;5076941;27;45351;-69
2022/11/26 06:40:05;;;;;;;;;31.50;31.50;;;;;7.55;79.58;102053.06;5077472;28;45305;-70
2022/11/26 06:42:30;;;;;;;;;30.00;29.50;;;;;7.58;80.03;102067.00;5077132;28;45344;-69
2022/11/26 06:44:55;;;;;;;;;28.00;27.50;;;;;7.57;80.18;102067.03;5077242;27;45219;-70
2022/11/26 06:47:21;;;;;;;;;30.75;29.00;;;;;7.60;80.45;102072.25;5076834;27;45330;-69
2022/11/26 06:49:46;;;;;;;;;30.00;29.75;;;;;7.65;80.78;102070.47;5077190;27;45275;-68
2022/11/26 06:52:12;;;;;;;;;28.00;26.75;;;;;7.68;80.97;102072.19;5076818;27;45317;-68
2022/11/26 06:54:37;;;;;;;;;22.75;22.75;;;;;7.70;80.44;102080.91;5077455;27;45652;-69
2022/11/26 06:57:02;;;;;;;;;28.00;28.00;;;;;7.75;80.80;102089.63;5076591;28;51039;-69
2022/11/26 06:59:28;;;;;;;;;32.50;31.00;;;;;7.75;80.74;102095.75;5076597;27;45329;-68
2022/11/26 07:01:53;;;;;;;;;28.00;28.00;;;;;7.75;80.34;102103.63;5076859;27;45295;-68
2022/11/26 07:04:18;;;;;;;;;30.50;29.75;;;;;7.75;80.16;102102.72;5076627;28;45512;-67
2022/11/26 07:06:44;;;;;;;;;27.50;27.50;;;;;7.72;80.63;102093.16;5076191;28;54276;-67
2022/11/26 07:09:11;;;;;;;;;32.00;31.75;;;;;7.76;80.52;102094.00;5076828;27;45424;-67
2022/11/26 07:11:37;;;;;;;;;30.25;30.25;;;;;7.77;79.76;102087.03;5077269;27;45420;-67
2022/11/26 07:14:03;;;;;;;;;33.25;32.00;;;;;7.74;79.55;102080.91;5077649;28;45247;-66
2022/11/26 07:16:29;;;;;;;;;32.75;30.00;;;;;7.74;79.59;102082.66;5076423;27;46305;-68
2022/11/26 07:18:55;;;;;;;;;30.50;30.25;;;;;7.71;79.46;102086.16;5074781;28;45411;-67
2022/11/26 07:21:21;;;;;;;;;32.25;32.00;;;;;7.65;79.59;102087.94;5076724;27;45435;-68
2022/11/26 07:23:47;;;;;;;;;32.25;30.75;;;;;7.66;79.51;102093.19;5076572;27;45498;-69
2022/11/26 07:26:14;;;;;;;;;31.00;31.00;;;;;7.64;79.65;102092.31;5076120;27;45302;-67
2022/11/26 07:28:40;;;;;;;;;29.50;26.75;;;;;7.67;79.76;102099.28;5076395;27;45418;-68
2022/11/26 07:31:11;;;;;;;;;31.00;29.25;;;;;7.70;79.42;102107.13;5075175;27;45414;-68
2022/11/26 07:33:37;;;;;;;;;30.50;30.50;;;;;7.71;79.38;102109.75;5076496;27;45252;-68
2022/11/26 07:36:10;;;;;;;;;42.25;38.00;;;;;7.67;79.16;102113.25;5076013;27;45302;-68
2022/11/26 07:38:35;;;;;;;;;33.50;32.50;;;;;7.66;78.91;102111.50;5076082;27;45343;-71
2022/11/26 07:41:06;;;;;;;;;33.75;32.25;;;;;7.68;78.57;102109.75;5076150;27;45185;-72
2022/11/26 07:43:37;;;;;;;;;32.75;31.25;;;;;7.68;79.06;102095.78;5076172;27;45569;-74
2022/11/26 07:46:07;;;;;;;;;33.00;31.50;;;;;7.71;79.14;102099.28;5075794;27;46164;-73
2022/11/26 07:48:33;;;;;;;;;28.75;27.75;;;;;7.71;78.71;102091.41;5075496;27;45339;-72
2022/11/26 07:51:00;;;;;;;;;32.00;32.00;;;;;7.69;79.46;102087.03;5075864;27;45326;-69
2022/11/26 07:53:30;;;;;;;;;30.75;30.50;;;;;7.69;78.36;102084.41;5075792;27;45490;-74
2022/11/26 07:55:55;;;;;;;;;20.25;20.25;;;;;7.68;78.90;102083.56;5075754;27;46325;-70
2022/11/26 07:58:21;;;;;;;;;28.00;28.00;;;;;7.71;79.06;102082.66;5075492;27;45392;-70
2022/11/26 08:00:46;;;;;;;;;32.50;31.75;;;;;7.70;78.42;102079.19;5075619;27;45256;-72
2022/11/26 08:03:11;;;;;;;;;28.25;27.00;;;;;7.67;78.51;102079.19;5075949;27;45481;-72
2022/11/26 08:05:43;;;;;;;;;29.25;29.25;;;;;7.69;78.23;102071.31;5075354;27;46331;-71
2022/11/26 08:08:09;;;;;;;;;28.75;28.75;;;;;7.66;78.17;102071.34;5075907;28;45251;-70
2022/11/26 08:10:34;;;;;;;;;33.50;32.25;;;;;7.68;78.65;102086.19;5075542;27;45505;-70
2022/11/26 08:13:00;;;;;;;;;29.50;27.25;;;;;7.71;79.04;102099.28;5075290;27;45351;-70
2022/11/26 08:15:25;;;;;;;;;29.25;29.25;;;;;7.70;79.30;102100.16;5074841;27;45278;-71
2022/11/26 08:17:56;;;;;;;;;31.50;31.00;;;;;7.72;78.57;102108.88;5075189;27;45456;-72
2022/11/26 08:20:22;;;;;;;;;30.25;30.25;;;;;7.73;78.98;102105.38;5075484;27;45287;-73
2022/11/26 08:22:48;;;;;;;;;30.00;28.50;;;;;7.82;78.93;102116.69;5091157;27;45449;-72
2022/11/26 08:25:14;;;;;;;;;30.25;30.25;;;;;7.83;78.13;102116.66;5075474;27;46045;-73
2022/11/26 08:27:39;;;;;;;;;33.25;32.00;;;;;7.84;78.84;102118.41;5075329;27;45320;-70
2022/11/26 08:30:06;;;;;;;;;30.25;30.25;;;;;7.83;78.51;102102.72;5074746;27;45318;-72
2022/11/26 08:32:32;;;;;;;;;35.25;32.50;;;;;7.86;78.27;102118.41;5075424;27;45522;-73
2022/11/26 08:34:57;;;;;;;;;31.25;31.00;;;;;7.87;78.17;102117.53;5075217;27;46715;-70
2022/11/26 08:37:23;;;;;;;;;35.25;32.25;;;;;7.88;78.25;102116.66;5075274;27;45356;-71
2022/11/26 08:39:48;;;;;;;;;37.25;34.25;;;;;7.85;78.43;102109.66;5075342;27;45434;-72
2022/11/26 08:42:14;;;;;;;;;35.00;34.00;;;;;7.88;77.79;102114.91;5075255;27;45547;-70
2022/11/26 08:44:39;;;;;;;;;32.50;32.00;;;;;7.91;77.43;102114.03;5075113;28;46207;-71
2022/11/26 08:47:04;;;;;;;;;38.00;34.25;;;;;7.90;78.00;102094.81;5090449;27;52115;-72
2022/11/26 08:49:29;;;;;;;;;34.00;32.75;;;;;7.94;78.09;102095.66;5075094;27;45355;-71
2022/11/26 08:51:55;;;;;;;;;29.00;27.50;;;;;7.94;77.66;102100.91;5075680;27;45474;-70
2022/11/26 08:54:21;;;;;;;;;31.50;31.50;;;;;7.95;77.96;102099.16;5075087;27;47049;-70
2022/11/26 08:56:46;;;;;;;;;36.25;34.00;;;;;7.98;78.22;102105.25;5075011;28;45352;-69
2022/11/26 08:59:12;;;;;;;;;32.50;31.50;;;;;7.98;77.33;102109.66;5073804;28;45401;-70
2022/11/26 09:01:37;;;;;;;;;34.00;33.25;;;;;7.95;77.31;102107.00;5074895;27;45330;-70
2022/11/26 09:04:03;;;;;;;;;29.50;29.25;;;;;7.85;77.74;102108.81;5075142;27;45367;-73
2022/11/26 09:06:31;;;;;;;;;36.75;35.00;;;;;7.83;77.58;102110.56;5074653;28;45197;-73
2022/11/26 09:09:11;;;;;;;;;42.25;37.50;;;;;7.78;78.24;102123.66;5107281;27;45404;-71
2022/11/26 09:11:40;;;;;;;;;36.50;35.00;;;;;7.77;78.37;102121.94;5074689;27;45239;-72
2022/11/26 09:14:05;;;;;;;;;41.75;36.50;;;;;7.79;78.61;102114.09;5073988;28;45454;-73
2022/11/26 09:16:31;;;;;;;;;34.50;33.00;;;;;7.83;78.74;102121.91;5074246;27;45378;-73
2022/11/26 09:19:01;;;;;;;;;39.00;35.00;;;;;7.86;78.17;102118.41;5074500;27;45315;-71
2022/11/26 09:21:26;;;;;;;;;41.00;35.50;;;;;7.88;78.33;102132.38;5074353;27;45521;-72
2022/11/26 09:23:53;;;;;;;;;35.75;34.00;;;;;7.89;78.18;102129.75;5074264;27;45966;-70
2022/11/26 09:26:20;;;;;;;;;40.00;36.50;;;;;7.92;78.69;102123.63;5074278;27;45342;-70
2022/11/26 09:28:47;;;;;;;;;38.25;34.25;;;;;7.97;78.28;102123.63;5074826;27;45414;-70
2022/11/26 09:31:13;;;;;;;;;41.00;36.75;;;;;7.98;79.02;102113.13;5074237;27;45350;-73
2022/11/26 09:33:38;;;;;;;;;46.25;37.25;;;;;7.99;79.05;102098.28;5073997;27;46168;-73
2022/11/26 09:36:09;;;;;;;;;51.25;42.50;;;;;8.02;78.60;102098.28;5074348;27;45393;-72
2022/11/26 09:38:35;;;;;;;;;39.75;36.75;;;;;8.07;79.04;102098.22;5074450;27;45346;-74
2022/11/26 09:41:13;;;;;;;;;38.25;34.25;;;;;8.11;78.40;102106.09;5074752;27;45359;-71
2022/11/26 09:43:52;;;;;;;;;34.50;33.25;;;;;8.10;78.68;102103.44;5075271;28;46495;-72
2022/11/26 09:46:30;;;;;;;;;40.75;36.00;;;;;8.11;78.71;102106.09;5075530;27;45223;-71
2022/11/26 09:48:58;;;;;;;;;49.75;41.75;;;;;8.14;78.86;102105.19;5074836;28;45425;-72
2022/11/26 09:51:24;;;;;;;;;44.50;39.00;;;;;8.13;78.60;102099.06;5074614;27;45601;-71
2022/11/26 09:53:50;;;;;;;;;35.00;33.00;;;;;8.22;78.68;102113.88;5072797;28;48324;-71
2022/11/26 09:56:23;;;;;;;;;44.25;37.00;;;;;8.26;78.80;102112.97;5077669;27;45236;-71
2022/11/26 09:59:01;;;;;;;;;45.00;37.50;;;;;8.23;78.47;102086.78;5077910;27;45284;-73
2022/11/26 10:01:30;;;;;;;;;42.25;37.25;;;;;8.35;78.66;102101.56;5077964;27;45314;-71
2022/11/26 10:03:57;;;;;;;;;46.25;39.00;;;;;8.40;78.61;102098.91;5077201;27;46561;-74
2022/11/26 10:06:53;;;;;;;;;40.50;36.50;;;;;8.47;78.95;102097.97;5077697;27;45413;-70
2022/11/26 10:09:31;;;;;;;;;38.25;35.75;;;;;8.54;78.47;102091.88;5078246;27;45396;-72
2022/11/26 10:12:11;;;;;;;;;46.75;38.25;;;;;8.62;78.53;102099.66;5093581;27;45699;-74
2022/11/26 10:14:58;;;;;;;;;47.50;41.50;;;;;8.67;78.33;102105.75;5077582;27;45404;-70
2022/11/26 10:17:38;;;;;;;;;50.75;40.75;;;;;8.76;78.24;102099.56;5077572;27;45338;-71
2022/11/26 10:20:39;;;;;;;;;47.25;40.50;;;;;8.80;78.16;102103.00;5076240;28;45311;-69
2022/11/26 10:23:11;;;;;;;;;49.75;42.00;;;;;8.85;78.09;102093.34;5078355;28;45317;-71
2022/11/26 10:25:50;;;;;;;;;45.25;39.25;;;;;8.91;78.11;102093.28;5093273;27;46682;-74
2022/11/26 10:28:50;;;;;;;;;47.50;41.50;;;;;8.99;78.04;102095.88;5077793;27;45246;-69
2022/11/26 10:31:22;;;;;;;;;45.25;39.25;;;;;8.97;77.85;102090.63;5044951;27;45330;-72
2022/11/26 10:34:09;;;;;;;;;42.00;37.50;;;;;9.04;78.06;102094.06;5078619;27;45677;-73
2022/11/26 10:36:40;;;;;;;;;37.50;34.00;;;;;9.09;78.12;102079.16;5077468;27;45469;-71
2022/11/26 10:39:11;;;;;;;;;43.25;37.25;;;;;9.16;77.89;102075.56;5077642;27;45361;-72
2022/11/26 10:41:36;;;;;;;;;41.75;37.25;;;;;9.21;77.75;102076.38;5077794;27;45421;-71
2022/11/26 10:44:28;;;;;;;;;50.75;41.75;;;;;9.22;77.76;102064.16;5077527;27;45373;-68
2022/11/26 10:46:53;;;;;;;;;53.75;45.00;;;;;9.29;77.37;102062.31;5077348;27;45306;-73
2022/11/26 10:49:25;;;;;;;;;52.75;45.00;;;;;9.35;77.44;102078.00;5077614;28;45267;-78
2022/11/26 10:52:02;;;;;;;;;40.25;36.00;;;;;9.38;77.38;102077.97;5077656;28;45220;-70
2022/11/26 10:54:36;;;;;;;;;39.25;35.75;;;;;9.44;77.25;102077.88;5077453;27;45198;-70
2022/11/26 10:57:14;;;;;;;;;38.25;35.25;;;;;9.52;77.04;102074.31;5077011;27;45371;-71
2022/11/26 10:59:42;;;;;;;;;41.25;37.25;;;;;9.54;76.95;102076.03;5092567;27;45375;-71
2022/11/26 11:02:32;;;;;;;;;38.50;35.00;;;;;9.57;76.87;102077.78;5076779;27;45386;-70
2022/11/26 11:05:01;;;;;;;;;35.25;32.50;;;;;9.55;76.66;102077.78;5076988;27;45417;-70
2022/11/26 11:07:45;;;;;;;;;40.25;36.25;;;;;9.55;76.58;102084.81;5108383;27;48424;-72
2022/11/26 11:10:10;;;;;;;;;40.75;36.25;;;;;9.58;76.78;102087.41;5075399;28;45319;-73
2022/11/26 11:12:36;;;;;;;;;37.75;32.25;;;;;9.55;77.00;102080.41;5077186;27;45349;-72
2022/11/26 11:15:17;;;;;;;;;38.00;34.75;;;;;9.53;76.61;102079.56;5077326;28;45279;-70
2022/11/26 11:17:45;;;;;;;;;40.50;35.50;;;;;9.49;77.56;102083.09;5076950;28;45458;-72
2022/11/26 11:20:13;;;;;;;;;42.50;36.00;;;;;9.52;76.97;102085.69;5076615;27;45474;-71
2022/11/26 11:22:38;;;;;;;;;41.75;37.00;;;;;9.59;77.12;102076.00;5076885;27;45256;-71
2022/11/26 11:25:20;;;;;;;;;39.75;34.75;;;;;9.65;76.61;102075.91;5077485;27;45529;-70